Time,TemperatureF,DewpointF,PressureIn,WindDirection,WindDirectionDegrees,WindSpeedMPH,WindSpeedGustMPH,Humidity,HourlyPrecipIn,Conditions,Clouds,dailyrainin,SolarRadiationWatts/m^2,SoftwareType,DateUTC
2013-07-06 00:00:00,74.9,71.4,30.13,South,189,1.0,1.0,89,0.00,,,0.00,0,Wunderground v.1.15,2013-07-06 04:00:00,
2013-07-06 00:05:00,75.0,71.5,30.13,West,263,1.0,1.0,89,0.00,,,0.00,0,Wunderground v.1.15,2013-07-06 04:05:00,
2013-07-06 00:10:00,75.1,71.6,30.13,West,281,1.0,1.0,89,0.00,,,0.00,0,Wunderground v.1.15,2013-07-06 04:10:00,
2013-07-06 00:15:00,75.2,71.7,30.13,WNW,288,1.0,1.0,89,0.00,,,0.00,0,Wunderground v.1.15,2013-07-06 04:15:00,
2013-07-06 00:20:00,75.2,71.7,30.13,WSW,254,2.0,4.0,89,0.00,,,0.00,0,Wunderground v.1.15,2013-07-06 04:20:00,
2013-07-06 00:25:00,75.2,71.7,30.13,West,266,2.0,4.0,89,0.00,,,0.00,0,Wunderground v.1.15,2013-07-06 04:25:00,
2013-07-06 00:30:00,75.3,71.8,30.13,SSW,194,2.0,2.0,89,0.00,,,0.00,0,Wunderground v.1.15,2013-07-06 04:30:00,
2013-07-06 00:35:00,75.3,71.8,30.13,SW,223,2.0,2.0,89,0.00,,,0.00,0,Wunderground v.1.15,2013-07-06 04:35:00,
2013-07-06 00:45:00,75.4,71.9,30.13,South,180,1.0,1.0,89,0.00,,,0.00,0,Wunderground v.1.15,2013-07-06 04:45:00,
2013-07-06 00:50:00,75.4,71.9,30.13,SW,216,1.0,1.0,89,0.00,,,0.00,0,Wunderground v.1.15,2013-07-06 04:50:00,
2013-07-06 01:00:00,75.4,71.9,30.13,South,186,0.0,0.0,89,0.00,,,0.00,0,Wunderground v.1.15,2013-07-06 05:00:00,
2013-07-06 01:05:00,75.4,71.9,30.13,West,273,0.0,1.0,89,0.00,,,0.00,0,Wunderground v.1.15,2013-07-06 05:05:00,
2013-07-06 01:10:00,75.4,71.9,30.12,SSW,193,1.0,1.0,89,0.00,,,0.00,0,Wunderground v.1.15,2013-07-06 05:10:00,
2013-07-06 01:19:00,75.3,71.8,30.12,West,261,0.0,1.0,89,0.00,,,0.00,0,Wunderground v.1.15,2013-07-06 05:19:00,
2013-07-06 01:25:00,75.2,71.7,30.13,WSW,240,1.0,1.0,89,0.00,,,0.00,0,Wunderground v.1.15,2013-07-06 05:25:00,
2013-07-06 01:35:00,75.0,71.9,30.12,SSE,165,1.0,1.0,90,0.00,,,0.00,0,Wunderground v.1.15,2013-07-06 05:35:00,
2013-07-06 01:40:00,74.9,71.8,30.12,WNW,283,1.0,3.0,90,0.00,,,0.00,0,Wunderground v.1.15,2013-07-06 05:40:00,
2013-07-06 01:50:00,74.7,71.6,30.12,SE,135,1.0,1.0,90,0.00,,,0.00,0,Wunderground v.1.15,2013-07-06 05:50:00,
2013-07-06 01:55:00,74.6,71.5,30.12,SSW,195,0.0,1.0,90,0.00,,,0.00,0,Wunderground v.1.15,2013-07-06 05:55:00,
2013-07-06 02:05:00,74.4,71.6,30.12,SW,219,1.0,1.0,91,0.00,,,0.00,0,Wunderground v.1.15,2013-07-06 06:05:00,
2013-07-06 02:10:00,74.4,71.6,30.12,SSW,194,1.0,1.0,91,0.00,,,0.00,0,Wunderground v.1.15,2013-07-06 06:10:00,
2013-07-06 02:20:00,74.4,71.6,30.13,West,275,1.0,2.0,91,0.00,,,0.00,0,Wunderground v.1.15,2013-07-06 06:20:00,
2013-07-06 02:30:00,74.4,71.6,30.13,SE,142,1.0,1.0,91,0.00,,,0.00,0,Wunderground v.1.15,2013-07-06 06:30:00,
2013-07-06 02:35:00,74.5,71.7,30.13,WSW,240,1.0,1.0,91,0.00,,,0.00,0,Wunderground v.1.15,2013-07-06 06:35:00,
2013-07-06 02:45:00,74.7,71.9,30.13,SSW,206,1.0,1.0,91,0.00,,,0.00,0,Wunderground v.1.15,2013-07-06 06:45:00,
2013-07-06 02:55:00,74.7,71.9,30.13,SW,235,0.0,2.0,91,0.00,,,0.00,0,Wunderground v.1.15,2013-07-06 06:55:00,
2013-07-06 03:00:00,74.8,72.0,30.13,SW,234,0.0,0.0,91,0.00,,,0.00,0,Wunderground v.1.15,2013-07-06 07:00:00,
2013-07-06 03:05:00,74.8,72.0,30.13,SW,222,0.0,0.0,91,0.00,,,0.00,0,Wunderground v.1.15,2013-07-06 07:05:00,
2013-07-06 03:10:00,74.8,72.3,30.13,SW,215,0.0,0.0,92,0.00,,,0.00,0,Wunderground v.1.15,2013-07-06 07:10:00,
2013-07-06 03:20:00,74.8,72.0,30.13,West,263,0.0,1.0,91,0.00,,,0.00,0,Wunderground v.1.15,2013-07-06 07:20:00,
2013-07-06 03:25:00,74.9,72.4,30.13,West,279,1.0,1.0,92,0.00,,,0.00,0,Wunderground v.1.15,2013-07-06 07:25:00,
2013-07-06 03:35:00,74.9,72.4,30.13,SW,236,0.0,0.0,92,0.00,,,0.00,0,Wunderground v.1.15,2013-07-06 07:35:00,
2013-07-06 03:40:00,75.0,72.5,30.13,SSW,209,1.0,1.0,92,0.00,,,0.00,0,Wunderground v.1.15,2013-07-06 07:40:00,
2013-07-06 03:50:00,75.0,72.5,30.12,SW,217,1.0,1.0,92,0.00,,,0.00,0,Wunderground v.1.15,2013-07-06 07:50:00,
2013-07-06 03:55:00,75.1,72.6,30.13,WSW,243,1.0,2.0,92,0.00,,,0.00,0,Wunderground v.1.15,2013-07-06 07:55:00,
2013-07-06 04:05:00,75.1,72.6,30.13,West,260,0.0,1.0,92,0.00,,,0.00,0,Wunderground v.1.15,2013-07-06 08:05:00,
2013-07-06 04:10:00,75.2,72.7,30.13,South,172,0.0,0.0,92,0.00,,,0.00,0,Wunderground v.1.15,2013-07-06 08:10:00,
2013-07-06 04:15:00,75.2,72.4,30.13,South,182,0.0,0.0,91,0.00,,,0.00,0,Wunderground v.1.15,2013-07-06 08:15:00,
2013-07-06 04:25:00,75.3,72.5,30.13,South,173,0.0,1.0,91,0.00,,,0.00,0,Wunderground v.1.15,2013-07-06 08:25:00,
2013-07-06 04:35:00,75.3,72.5,30.13,SSW,197,0.0,1.0,91,0.00,,,0.00,0,Wunderground v.1.15,2013-07-06 08:35:00,
2013-07-06 04:45:00,75.3,72.5,30.12,South,171,0.0,0.0,91,0.00,,,0.00,0,Wunderground v.1.15,2013-07-06 08:45:00,
2013-07-06 04:50:00,75.2,72.4,30.12,SSW,198,0.0,0.0,91,0.00,,,0.00,0,Wunderground v.1.15,2013-07-06 08:50:00,
2013-07-06 05:00:00,75.1,72.3,30.12,South,175,1.0,1.0,91,0.00,,,0.00,0,Wunderground v.1.15,2013-07-06 09:00:00,
2013-07-06 05:10:00,74.9,72.4,30.13,West,263,0.0,0.0,92,0.00,,,0.00,0,Wunderground v.1.15,2013-07-06 09:10:00,
2013-07-06 05:15:00,74.8,72.3,30.13,West,259,1.0,1.0,92,0.00,,,0.00,0,Wunderground v.1.15,2013-07-06 09:15:00,
2013-07-06 05:20:00,74.8,72.3,30.13,WSW,257,1.0,2.0,92,0.00,,,0.00,0,Wunderground v.1.15,2013-07-06 09:20:00,
2013-07-06 05:25:00,74.7,72.2,30.13,South,179,1.0,2.0,92,0.00,,,0.00,0,Wunderground v.1.15,2013-07-06 09:25:00,
2013-07-06 05:35:00,74.6,72.1,30.13,South,184,1.0,2.0,92,0.00,,,0.00,5,Wunderground v.1.15,2013-07-06 09:35:00,
2013-07-06 05:40:00,74.6,72.1,30.13,South,189,1.0,1.0,92,0.00,,,0.00,5,Wunderground v.1.15,2013-07-06 09:40:00,
2013-07-06 05:50:00,74.6,72.1,30.13,South,180,0.0,0.0,92,0.00,,,0.00,9,Wunderground v.1.15,2013-07-06 09:50:00,
2013-07-06 05:55:00,74.5,72.0,30.13,South,190,0.0,1.0,92,0.00,,,0.00,11,Wunderground v.1.15,2013-07-06 09:55:00,
2013-07-06 06:00:00,74.5,72.0,30.13,WSW,238,0.0,0.0,92,0.00,,,0.00,12,Wunderground v.1.15,2013-07-06 10:00:00,
2013-07-06 06:05:00,74.4,71.9,30.13,SSW,197,0.0,0.0,92,0.00,,,0.00,16,Wunderground v.1.15,2013-07-06 10:05:00,
2013-07-06 06:15:00,74.3,71.8,30.13,South,169,0.0,2.0,92,0.00,,,0.00,18,Wunderground v.1.15,2013-07-06 10:15:00,
2013-07-06 06:20:00,74.3,71.8,30.13,SW,227,0.0,1.0,92,0.00,,,0.00,21,Wunderground v.1.15,2013-07-06 10:20:00,
2013-07-06 06:25:00,74.2,71.7,30.13,West,267,0.0,2.0,92,0.00,,,0.00,21,Wunderground v.1.15,2013-07-06 10:25:00,
2013-07-06 06:30:00,74.2,71.7,30.14,SSW,202,0.0,0.0,92,0.00,,,0.00,23,Wunderground v.1.15,2013-07-06 10:30:00,
2013-07-06 06:40:00,74.3,72.1,30.14,South,190,0.0,0.0,93,0.00,,,0.00,26,Wunderground v.1.15,2013-07-06 10:40:00,
2013-07-06 06:50:00,74.4,72.2,30.14,SSW,196,0.0,0.0,93,0.00,,,0.00,28,Wunderground v.1.15,2013-07-06 10:50:00,
2013-07-06 06:55:00,74.4,72.2,30.14,SSW,207,1.0,1.0,93,0.00,,,0.00,30,Wunderground v.1.15,2013-07-06 10:55:00,
2013-07-06 07:00:00,74.4,71.9,30.14,SSE,167,1.0,1.0,92,0.00,,,0.00,30,Wunderground v.1.15,2013-07-06 11:00:00,
2013-07-06 07:10:00,74.6,72.1,30.14,South,184,0.0,0.0,92,0.00,,,0.00,33,Wunderground v.1.15,2013-07-06 11:10:00,
2013-07-06 07:20:00,74.8,72.3,30.14,SSW,211,0.0,0.0,92,0.00,,,0.00,35,Wunderground v.1.15,2013-07-06 11:20:00,
2013-07-06 07:25:00,74.9,72.7,30.14,SSW,210,0.0,0.0,93,0.00,,,0.00,37,Wunderground v.1.15,2013-07-06 11:25:00,
2013-07-06 07:35:00,75.2,72.7,30.14,WSW,248,0.0,1.0,92,0.00,,,0.00,39,Wunderground v.1.15,2013-07-06 11:35:00,
2013-07-06 07:40:00,75.4,72.9,30.14,SW,223,1.0,1.0,92,0.00,,,0.00,39,Wunderground v.1.15,2013-07-06 11:40:00,
2013-07-06 07:50:00,75.8,73.3,30.14,South,182,1.0,1.0,92,0.00,,,0.00,40,Wunderground v.1.15,2013-07-06 11:50:00,
2013-07-06 07:55:00,76.0,73.5,30.14,South,183,1.0,2.0,92,0.00,,,0.00,42,Wunderground v.1.15,2013-07-06 11:55:00,
2013-07-06 08:05:00,76.3,73.5,30.13,WNW,286,1.0,2.0,91,0.00,,,0.00,44,Wunderground v.1.15,2013-07-06 12:05:00,
2013-07-06 08:10:00,76.6,73.8,30.13,South,190,0.0,0.0,91,0.00,,,0.00,63,Wunderground v.1.15,2013-07-06 12:10:00,
2013-07-06 08:15:00,76.8,74.0,30.13,SW,227,0.0,0.0,91,0.00,,,0.00,46,Wunderground v.1.15,2013-07-06 12:15:00,
2013-07-06 08:25:00,76.9,73.1,30.13,SSW,213,1.0,4.0,88,0.00,,,0.00,47,Wunderground v.1.15,2013-07-06 12:25:00,
2013-07-06 08:30:00,77.0,73.2,30.13,SSE,168,1.0,1.0,88,0.00,,,0.00,56,Wunderground v.1.15,2013-07-06 12:30:00,
2013-07-06 08:40:00,77.1,73.3,30.13,SW,232,1.0,1.0,88,0.00,,,0.00,49,Wunderground v.1.15,2013-07-06 12:40:00,
2013-07-06 08:50:00,77.2,73.4,30.13,SW,223,1.0,1.0,88,0.00,,,0.00,51,Wunderground v.1.15,2013-07-06 12:50:00,
2013-07-06 09:00:00,77.3,73.5,30.13,WSW,254,1.0,1.0,88,0.00,,,0.00,53,Wunderground v.1.15,2013-07-06 13:00:00,
2013-07-06 09:10:00,77.6,73.4,30.13,South,179,1.0,1.0,87,0.00,,,0.00,97,Wunderground v.1.15,2013-07-06 13:10:00,
2013-07-06 09:15:00,77.7,73.5,30.13,SSE,164,1.0,2.0,87,0.00,,,0.00,149,Wunderground v.1.15,2013-07-06 13:15:00,
2013-07-06 09:25:00,78.0,73.8,30.12,SW,223,1.0,1.0,87,0.00,,,0.00,62,Wunderground v.1.15,2013-07-06 13:25:00,
2013-07-06 09:35:00,78.4,74.2,30.12,SSE,159,1.0,2.0,87,0.00,,,0.00,58,Wunderground v.1.15,2013-07-06 13:35:00,
2013-07-06 09:40:00,78.5,74.0,30.12,WNW,300,1.0,2.0,86,0.00,,,0.00,60,Wunderground v.1.15,2013-07-06 13:40:00,
2013-07-06 09:45:00,78.6,73.7,30.12,WSW,252,1.0,2.0,85,0.00,,,0.00,67,Wunderground v.1.15,2013-07-06 13:45:00,
2013-07-06 09:55:00,78.6,73.7,30.12,SSW,193,1.0,1.0,85,0.00,,,0.00,70,Wunderground v.1.15,2013-07-06 13:55:00,
2013-07-06 10:05:00,78.7,73.8,30.11,SSW,198,1.0,2.0,85,0.00,,,0.00,67,Wunderground v.1.15,2013-07-06 14:05:00,
2013-07-06 10:10:00,78.7,73.8,30.11,South,170,1.0,1.0,85,0.00,,,0.00,93,Wunderground v.1.15,2013-07-06 14:10:00,
2013-07-06 10:15:00,78.8,73.9,30.11,SW,232,1.0,3.0,85,0.00,,,0.00,70,Wunderground v.1.15,2013-07-06 14:15:00,
2013-07-06 10:25:00,78.8,73.2,30.11,SSW,206,2.0,2.0,83,0.00,,,0.00,70,Wunderground v.1.15,2013-07-06 14:25:00,
2013-07-06 10:30:00,78.7,73.5,30.11,South,181,2.0,2.0,84,0.00,,,0.00,72,Wunderground v.1.15,2013-07-06 14:30:00,
2013-07-06 10:35:00,78.7,73.5,30.11,SW,219,2.0,2.0,84,0.00,,,0.00,72,Wunderground v.1.15,2013-07-06 14:35:00,
2013-07-06 10:45:00,78.7,73.5,30.11,WSW,244,2.0,2.0,84,0.00,,,0.00,111,Wunderground v.1.15,2013-07-06 14:45:00,
2013-07-06 10:55:00,78.7,73.5,30.11,SSE,149,2.0,2.0,84,0.00,,,0.00,524,Wunderground v.1.15,2013-07-06 14:55:00,
2013-07-06 11:00:00,78.7,73.8,30.11,SW,229,2.0,2.0,85,0.00,,,0.00,84,Wunderground v.1.15,2013-07-06 15:00:00,
2013-07-06 11:05:00,78.8,73.6,30.10,SE,140,2.0,2.0,84,0.00,,,0.00,246,Wunderground v.1.15,2013-07-06 15:05:00,
2013-07-06 11:15:00,79.2,73.9,30.10,South,182,2.0,2.0,84,0.00,,,0.00,100,Wunderground v.1.15,2013-07-06 15:15:00,
2013-07-06 11:20:00,79.4,73.8,30.10,South,175,3.0,3.0,83,0.00,,,0.00,93,Wunderground v.1.15,2013-07-06 15:20:00,
2013-07-06 11:30:00,80.0,74.7,30.10,SSE,167,2.0,2.0,84,0.00,,,0.00,207,Wunderground v.1.15,2013-07-06 15:30:00,
2013-07-06 11:35:00,80.3,74.7,30.10,SW,218,2.0,2.0,83,0.00,,,0.00,98,Wunderground v.1.15,2013-07-06 15:35:00,
2013-07-06 11:40:00,80.6,75.3,30.10,SSW,200,2.0,2.0,84,0.00,,,0.00,109,Wunderground v.1.15,2013-07-06 15:40:00,
2013-07-06 11:45:00,81.1,75.1,30.10,SSW,205,1.0,3.0,82,0.00,,,0.00,171,Wunderground v.1.15,2013-07-06 15:45:00,
2013-07-06 11:55:00,81.8,76.1,30.10,SSW,197,2.0,4.0,83,0.00,,,0.00,255,Wunderground v.1.15,2013-07-06 15:55:00,
2013-07-06 12:05:00,82.6,76.2,30.09,SSW,211,2.0,2.0,81,0.00,,,0.00,214,Wunderground v.1.15,2013-07-06 16:05:00,
2013-07-06 12:15:00,83.6,76.4,30.09,South,173,1.0,2.0,79,0.00,,,0.00,875,Wunderground v.1.15,2013-07-06 16:15:00,
2013-07-06 12:30:00,84.8,76.4,30.09,SW,217,1.0,1.0,76,0.00,,,0.00,798,Wunderground v.1.15,2013-07-06 16:30:00,
2013-07-06 12:40:00,85.2,76.4,30.09,South,190,1.0,1.0,75,0.00,,,0.00,900,Wunderground v.1.15,2013-07-06 16:40:00,
2013-07-06 12:50:00,85.6,76.4,30.09,SSW,194,2.0,2.0,74,0.00,,,0.00,909,Wunderground v.1.15,2013-07-06 16:50:00,
2013-07-06 13:00:00,85.8,76.5,30.09,SW,219,2.0,2.0,74,0.00,,,0.00,925,Wunderground v.1.15,2013-07-06 17:00:00,
2013-07-06 13:05:00,86.3,76.6,30.09,South,183,2.0,2.0,73,0.00,,,0.00,925,Wunderground v.1.15,2013-07-06 17:05:00,
2013-07-06 13:15:00,87.1,77.0,30.08,SW,225,1.0,2.0,72,0.00,,,0.00,919,Wunderground v.1.15,2013-07-06 17:15:00,
2013-07-06 13:25:00,87.4,77.3,30.08,South,174,2.0,2.0,72,0.00,,,0.00,923,Wunderground v.1.15,2013-07-06 17:25:00,
2013-07-06 13:30:00,87.6,77.5,30.08,South,187,2.0,2.0,72,0.00,,,0.00,932,Wunderground v.1.15,2013-07-06 17:30:00,
2013-07-06 13:40:00,88.4,77.8,30.08,West,268,2.0,3.0,71,0.00,,,0.00,902,Wunderground v.1.15,2013-07-06 17:40:00,
2013-07-06 13:45:00,88.7,77.7,30.08,WSW,242,1.0,3.0,70,0.00,,,0.00,875,Wunderground v.1.15,2013-07-06 17:45:00,
2013-07-06 14:05:00,89.9,77.0,30.08,WSW,254,2.0,2.0,66,0.00,,,0.00,756,Wunderground v.1.15,2013-07-06 18:05:00,
2013-07-06 14:10:00,89.9,77.0,30.08,WNW,286,2.0,2.0,66,0.00,,,0.00,649,Wunderground v.1.15,2013-07-06 18:10:00,
2013-07-06 14:25:00,89.1,76.3,30.08,WSW,252,2.0,2.0,66,0.00,,,0.00,849,Wunderground v.1.15,2013-07-06 18:25:00,
2013-07-06 14:35:00,89.2,76.8,30.08,South,171,2.0,3.0,67,0.00,,,0.00,847,Wunderground v.1.15,2013-07-06 18:35:00,
2013-07-06 14:40:00,89.5,76.2,30.07,South,185,2.0,2.0,65,0.00,,,0.00,842,Wunderground v.1.15,2013-07-06 18:40:00,
2013-07-06 14:50:00,90.3,77.8,30.07,South,187,1.0,1.0,67,0.00,,,0.00,833,Wunderground v.1.15,2013-07-06 18:50:00,
2013-07-06 14:55:00,90.5,77.6,30.07,SW,216,2.0,2.0,66,0.00,,,0.00,824,Wunderground v.1.15,2013-07-06 18:55:00,
2013-07-06 15:05:00,91.0,78.1,30.07,SSE,167,2.0,2.0,66,0.00,,,0.00,816,Wunderground v.1.15,2013-07-06 19:05:00,
2013-07-06 15:10:00,91.4,77.5,30.07,South,190,2.0,2.0,64,0.00,,,0.00,819,Wunderground v.1.15,2013-07-06 19:10:00,
2013-07-06 15:15:00,91.3,78.3,30.07,SW,225,2.0,2.0,66,0.00,,,0.00,800,Wunderground v.1.15,2013-07-06 19:15:00,
2013-07-06 15:30:00,91.8,77.9,30.07,South,185,1.0,2.0,64,0.00,,,0.00,754,Wunderground v.1.15,2013-07-06 19:30:00,
2013-07-06 15:45:00,91.0,77.6,30.07,South,182,1.0,2.0,65,0.00,,,0.00,599,Wunderground v.1.15,2013-07-06 19:45:00,
2013-07-06 15:55:00,90.5,77.1,30.07,SSW,196,1.0,2.0,65,0.00,,,0.00,673,Wunderground v.1.15,2013-07-06 19:55:00,
2013-07-06 16:05:00,90.1,77.2,30.07,South,179,2.0,2.0,66,0.00,,,0.00,619,Wunderground v.1.15,2013-07-06 20:05:00,
2013-07-06 16:10:00,90.0,77.1,30.07,SW,223,1.0,1.0,66,0.00,,,0.00,628,Wunderground v.1.15,2013-07-06 20:10:00,
2013-07-06 16:20:00,89.7,76.8,30.06,SSE,167,1.0,1.0,66,0.00,,,0.00,617,Wunderground v.1.15,2013-07-06 20:20:00,
2013-07-06 16:25:00,89.9,76.6,30.06,SW,227,1.0,2.0,65,0.00,,,0.00,589,Wunderground v.1.15,2013-07-06 20:25:00,
2013-07-06 16:45:00,89.7,76.8,30.05,WSW,237,2.0,2.0,66,0.00,,,0.00,529,Wunderground v.1.15,2013-07-06 20:45:00,
2013-07-06 16:50:00,89.5,76.6,30.05,SW,227,1.0,1.0,66,0.00,,,0.00,543,Wunderground v.1.15,2013-07-06 20:50:00,
2013-07-06 17:00:00,89.5,76.6,30.05,SSW,198,1.0,1.0,66,0.00,,,0.00,555,Wunderground v.1.15,2013-07-06 21:00:00,
2013-07-06 17:05:00,89.5,76.6,30.05,West,259,2.0,3.0,66,0.00,,,0.00,534,Wunderground v.1.15,2013-07-06 21:05:00,
2013-07-06 17:15:00,89.0,75.7,30.05,West,266,2.0,3.0,65,0.00,,,0.00,292,Wunderground v.1.15,2013-07-06 21:15:00,
2013-07-06 17:20:00,88.4,75.1,30.05,SW,223,2.0,3.0,65,0.00,,,0.00,123,Wunderground v.1.15,2013-07-06 21:20:00,
2013-07-06 17:30:00,87.6,75.7,30.04,West,261,1.0,2.0,68,0.00,,,0.00,88,Wunderground v.1.15,2013-07-06 21:30:00,
2013-07-06 17:40:00,87.0,75.6,30.04,South,172,2.0,2.0,69,0.00,,,0.00,83,Wunderground v.1.15,2013-07-06 21:40:00,
2013-07-06 17:45:00,86.7,75.3,30.04,West,269,2.0,3.0,69,0.00,,,0.00,79,Wunderground v.1.15,2013-07-06 21:45:00,
2013-07-06 17:50:00,86.3,74.9,30.05,SSW,213,2.0,3.0,69,0.00,,,0.00,83,Wunderground v.1.15,2013-07-06 21:50:00,
2013-07-06 17:55:00,85.9,75.0,30.04,South,188,2.0,2.0,70,0.00,,,0.00,185,Wunderground v.1.15,2013-07-06 21:55:00,
2013-07-06 18:05:00,85.4,74.9,30.04,South,174,2.0,3.0,71,0.00,,,0.00,146,Wunderground v.1.15,2013-07-06 22:05:00,
2013-07-06 18:20:00,85.0,75.0,30.04,SSW,207,1.0,1.0,72,0.00,,,0.00,70,Wunderground v.1.15,2013-07-06 22:20:00,
2013-07-06 18:25:00,84.8,74.8,30.04,South,176,1.0,1.0,72,0.00,,,0.00,53,Wunderground v.1.15,2013-07-06 22:25:00,
2013-07-06 18:35:00,84.5,74.9,30.04,SW,224,1.0,1.0,73,0.00,,,0.00,47,Wunderground v.1.15,2013-07-06 22:35:00,
2013-07-06 18:45:00,84.2,74.6,30.04,SSW,206,1.0,3.0,73,0.00,,,0.00,42,Wunderground v.1.15,2013-07-06 22:45:00,
2013-07-06 19:05:00,83.5,74.3,30.03,SSE,167,1.0,1.0,74,0.00,,,0.00,33,Wunderground v.1.15,2013-07-06 23:05:00,
2013-07-06 19:15:00,83.2,74.0,30.03,South,175,1.0,2.0,74,0.00,,,0.00,49,Wunderground v.1.15,2013-07-06 23:15:00,
2013-07-06 19:30:00,82.7,74.0,30.03,South,170,0.0,0.0,75,0.00,,,0.00,40,Wunderground v.1.15,2013-07-06 23:30:00,
2013-07-06 19:35:00,82.5,74.2,30.03,South,184,0.0,1.0,76,0.00,,,0.00,25,Wunderground v.1.15,2013-07-06 23:35:00,
2013-07-06 19:50:00,81.8,73.5,30.03,SSW,203,1.0,1.0,76,0.00,,,0.00,18,Wunderground v.1.15,2013-07-06 23:50:00,
2013-07-06 20:00:00,81.3,73.4,30.03,SSE,162,1.0,1.0,77,0.00,,,0.00,12,Wunderground v.1.15,2013-07-07 00:00:00,
2013-07-06 20:05:00,80.9,73.4,30.03,South,169,1.0,1.0,78,0.00,,,0.00,11,Wunderground v.1.15,2013-07-07 00:05:00,
2013-07-06 20:15:00,80.4,73.3,30.03,South,175,1.0,1.0,79,0.00,,,0.00,5,Wunderground v.1.15,2013-07-07 00:15:00,
2013-07-06 20:20:00,80.2,73.1,30.03,SW,236,0.0,0.0,79,0.00,,,0.00,0,Wunderground v.1.15,2013-07-07 00:20:00,
2013-07-06 20:30:00,79.8,73.1,30.03,South,191,0.0,0.0,80,0.00,,,0.00,0,Wunderground v.1.15,2013-07-07 00:30:00,
2013-07-06 20:40:00,79.3,73.0,30.03,SSW,193,0.0,1.0,81,0.00,,,0.00,0,Wunderground v.1.15,2013-07-07 00:40:00,
2013-07-06 20:45:00,79.1,73.1,30.03,South,186,0.0,1.0,82,0.00,,,0.00,0,Wunderground v.1.15,2013-07-07 00:45:00,
2013-07-06 20:55:00,78.8,72.8,30.03,SW,221,1.0,1.0,82,0.00,,,0.00,0,Wunderground v.1.15,2013-07-07 00:55:00,
2013-07-06 21:15:00,78.2,72.6,30.04,SSW,200,0.0,0.0,83,0.00,,,0.00,0,Wunderground v.1.15,2013-07-07 01:15:00,
2013-07-06 21:25:00,78.0,72.8,30.04,SSE,158,0.0,1.0,84,0.00,,,0.00,0,Wunderground v.1.15,2013-07-07 01:25:00,
2013-07-06 21:40:00,77.8,72.9,30.04,SSW,198,1.0,1.0,85,0.00,,,0.00,0,Wunderground v.1.15,2013-07-07 01:40:00,
2013-07-06 21:45:00,77.8,72.9,30.04,SSW,209,1.0,1.0,85,0.00,,,0.00,0,Wunderground v.1.15,2013-07-07 01:45:00,
2013-07-06 21:50:00,77.6,72.7,30.04,SW,227,1.0,1.0,85,0.00,,,0.00,0,Wunderground v.1.15,2013-07-07 01:50:00,
2013-07-06 22:00:00,77.5,72.6,30.04,South,177,0.0,0.0,85,0.00,,,0.00,0,Wunderground v.1.15,2013-07-07 02:00:00,
2013-07-06 22:10:00,77.4,72.9,30.04,South,179,0.0,0.0,86,0.00,,,0.00,0,Wunderground v.1.15,2013-07-07 02:10:00,
2013-07-06 22:20:00,77.3,72.8,30.05,SE,138,0.0,0.0,86,0.00,,,0.00,0,Wunderground v.1.15,2013-07-07 02:20:00,
2013-07-06 22:25:00,77.3,72.8,30.05,SE,144,0.0,0.0,86,0.00,,,0.00,0,Wunderground v.1.15,2013-07-07 02:25:00,
2013-07-06 22:55:00,77.1,72.9,30.05,South,190,0.0,1.0,87,0.00,,,0.00,0,Wunderground v.1.15,2013-07-07 02:55:00,
2013-07-06 23:00:00,77.0,72.8,30.05,SSW,196,0.0,0.0,87,0.00,,,0.00,0,Wunderground v.1.15,2013-07-07 03:00:00,
2013-07-06 23:05:00,77.0,72.8,30.05,South,182,0.0,0.0,87,0.00,,,0.00,0,Wunderground v.1.15,2013-07-07 03:05:00,
2013-07-06 23:15:00,76.9,72.7,30.05,SSW,204,0.0,0.0,87,0.00,,,0.00,0,Wunderground v.1.15,2013-07-07 03:15:00,
2013-07-06 23:25:00,76.9,72.7,30.05,SW,218,0.0,1.0,87,0.00,,,0.00,0,Wunderground v.1.15,2013-07-07 03:25:00,
2013-07-06 23:40:00,76.8,72.6,30.06,SSW,202,0.0,0.0,87,0.00,,,0.00,0,Wunderground v.1.15,2013-07-07 03:40:00,
2013-07-06 23:45:00,76.8,72.6,30.05,NW,316,0.0,0.0,87,0.00,,,0.00,0,Wunderground v.1.15,2013-07-07 03:45:00,
2013-07-06 23:50:00,76.8,72.6,30.05,NW,316,0.0,0.0,87,0.00,,,0.00,0,Wunderground v.1.15,2013-07-07 03:50:00,